createdAt,value
2023-03-24T00:00:23.978Z,11.00
2023-03-24T00:03:01.321Z,10.90
2023-03-24T00:05:34.582Z,10.90
2023-03-24T00:08:06.495Z,10.90
2023-03-24T00:10:42.575Z,10.90
2023-03-24T00:13:14.378Z,10.90
2023-03-24T00:15:48.756Z,10.90
2023-03-24T00:18:25.917Z,10.90
2023-03-24T00:20:58.857Z,10.90
2023-03-24T00:23:32.418Z,10.90
2023-03-24T00:26:08.812Z,10.90
2023-03-24T00:28:42.747Z,10.90
2023-03-24T00:31:15.881Z,10.90
2023-03-24T00:33:51.456Z,10.90
2023-03-24T00:36:26.582Z,10.90
2023-03-24T00:39:00.271Z,10.90
2023-03-24T00:41:32.028Z,10.90
2023-03-24T00:44:07.130Z,10.90
2023-03-24T00:46:39.691Z,11.00
2023-03-24T00:49:15.512Z,11.10
2023-03-24T00:51:48.057Z,11.20
2023-03-24T00:54:21.997Z,11.10
2023-03-24T00:56:55.964Z,11.20
2023-03-24T00:59:29.609Z,11.30
2023-03-24T01:02:01.285Z,11.20
2023-03-24T01:04:36.110Z,11.30
2023-03-24T01:07:10.780Z,11.30
2023-03-24T01:09:42.944Z,11.20
2023-03-24T01:12:14.851Z,11.20
2023-03-24T01:14:47.529Z,11.20
2023-03-24T01:17:22.272Z,11.20
2023-03-24T01:19:56.150Z,11.20
2023-03-24T01:22:31.666Z,11.20
2023-03-24T01:25:04.605Z,11.20
2023-03-24T01:27:36.866Z,11.20
2023-03-24T01:30:13.042Z,11.30
2023-03-24T01:32:45.047Z,11.30
2023-03-24T01:35:19.437Z,11.30
2023-03-24T01:37:52.936Z,11.30
2023-03-24T01:40:29.762Z,11.30
2023-03-24T01:43:03.345Z,11.30
2023-03-24T01:46:14.076Z,11.20
2023-03-24T01:48:51.951Z,11.20
2023-03-24T01:51:30.616Z,11.30
2023-03-24T01:54:08.344Z,11.30
2023-03-24T01:56:46.535Z,11.30
2023-03-24T01:59:26.083Z,11.30
2023-03-24T02:02:03.157Z,11.40
2023-03-24T02:04:39.040Z,11.30
2023-03-24T02:07:21.203Z,11.30
2023-03-24T02:09:53.417Z,11.30
2023-03-24T02:12:25.172Z,11.30
2023-03-24T02:14:56.921Z,11.30
2023-03-24T02:17:54.505Z,11.30
2023-03-24T02:21:35.152Z,11.40
2023-03-24T02:25:12.464Z,11.40
2023-03-24T02:28:05.595Z,11.40
2023-03-24T02:31:25.223Z,11.40
2023-03-24T02:34:55.617Z,11.40
2023-03-24T02:38:03.895Z,11.40
2023-03-24T02:40:40.784Z,11.40
2023-03-24T02:43:45.504Z,11.40
2023-03-24T02:46:25.294Z,11.40
2023-03-24T02:49:20.261Z,11.40
2023-03-24T02:52:04.942Z,11.30
2023-03-24T02:54:48.147Z,11.40
2023-03-24T02:57:31.309Z,11.40
2023-03-24T03:00:13.930Z,11.30
2023-03-24T03:02:53.924Z,11.30
2023-03-24T03:05:35.469Z,11.30
2023-03-24T03:08:11.920Z,11.30
2023-03-24T03:10:47.974Z,11.30
2023-03-24T03:13:31.610Z,11.30
2023-03-24T03:16:09.823Z,11.40
2023-03-24T03:18:50.178Z,11.40
2023-03-24T03:21:28.221Z,11.40
2023-03-24T03:24:09.325Z,11.40
2023-03-24T03:26:47.160Z,11.40
2023-03-24T03:29:27.328Z,11.50
2023-03-24T03:32:07.703Z,11.50
2023-03-24T03:34:48.028Z,11.50
2023-03-24T03:37:27.409Z,11.50
2023-03-24T03:40:04.832Z,11.60
2023-03-24T03:42:37.456Z,11.60
2023-03-24T03:45:14.305Z,11.80
2023-03-24T03:47:46.791Z,11.70
2023-03-24T03:50:18.836Z,11.80
2023-03-24T03:52:52.136Z,11.70
2023-03-24T03:55:24.874Z,11.80
2023-03-24T03:57:57.396Z,11.80
2023-03-24T04:00:31.342Z,11.80
2023-03-24T04:03:26.767Z,11.80
2023-03-24T04:06:06.574Z,11.80
2023-03-24T04:08:49.726Z,11.90
2023-03-24T04:11:56.952Z,11.80
2023-03-24T04:15:15.888Z,11.80
2023-03-24T04:18:17.052Z,11.70
2023-03-24T04:20:57.086Z,11.80
2023-03-24T04:23:40.109Z,11.80
2023-03-24T04:26:28.341Z,11.70
2023-03-24T04:29:17.728Z,11.60
2023-03-24T04:31:59.047Z,11.60
2023-03-24T04:34:38.218Z,11.60
2023-03-24T04:37:16.324Z,11.60
2023-03-24T04:39:58.516Z,11.60
2023-03-24T04:42:36.912Z,11.60
2023-03-24T04:45:12.196Z,11.60
2023-03-24T04:47:53.898Z,11.50
2023-03-24T04:50:38.197Z,11.50
2023-03-24T04:53:11.781Z,11.50
2023-03-24T04:56:02.280Z,11.50
2023-03-24T04:58:34.152Z,11.50
2023-03-24T05:01:08.970Z,11.50
2023-03-24T05:03:42.022Z,11.50
2023-03-24T05:06:17.849Z,11.50
2023-03-24T05:08:49.799Z,11.50
2023-03-24T05:11:21.957Z,11.50
2023-03-24T05:13:53.796Z,11.50
2023-03-24T05:16:25.861Z,11.50
2023-03-24T05:18:57.565Z,11.50
2023-03-24T05:21:33.623Z,11.50
2023-03-24T05:24:05.733Z,11.50
2023-03-24T05:26:39.953Z,11.60
2023-03-24T05:29:11.818Z,11.60
2023-03-24T05:31:45.013Z,11.60
2023-03-24T05:34:16.613Z,11.60
2023-03-24T05:36:49.740Z,11.70
2023-03-24T05:39:21.548Z,11.70
2023-03-24T05:41:53.388Z,11.70
2023-03-24T05:44:25.285Z,11.80
2023-03-24T05:46:57.078Z,11.80
2023-03-24T05:49:28.880Z,11.90
2023-03-24T05:52:02.268Z,11.90
2023-03-24T05:54:34.067Z,12.00
2023-03-24T05:57:07.926Z,12.10
2023-03-24T05:59:40.199Z,12.10
2023-03-24T06:02:12.037Z,12.10
2023-03-24T06:04:46.223Z,12.30
2023-03-24T06:07:20.013Z,12.30
2023-03-24T06:09:52.622Z,12.20
2023-03-24T06:12:24.318Z,12.30
2023-03-24T06:14:56.274Z,12.40
2023-03-24T06:17:30.203Z,12.40
2023-03-24T06:20:05.731Z,12.50
2023-03-24T06:22:38.796Z,12.50
2023-03-24T06:25:12.086Z,12.50
2023-03-24T06:27:46.065Z,12.40
2023-03-24T06:30:19.144Z,12.40
2023-03-24T06:32:51.248Z,12.40
2023-03-24T06:35:23.002Z,12.30
2023-03-24T06:37:56.436Z,12.20
2023-03-24T06:40:28.162Z,12.20
2023-03-24T06:43:00.316Z,12.20
2023-03-24T06:45:32.904Z,12.10
2023-03-24T06:48:04.834Z,12.20
2023-03-24T06:50:38.840Z,12.20
2023-03-24T06:53:13.969Z,12.20
2023-03-24T06:55:46.293Z,12.20
2023-03-24T06:58:18.825Z,12.10
2023-03-24T07:00:50.922Z,12.10
2023-03-24T07:03:23.423Z,12.00
2023-03-24T07:05:55.497Z,12.00
2023-03-24T07:08:37.477Z,12.00
2023-03-24T07:11:11.714Z,12.00
2023-03-24T07:13:43.546Z,12.00
2023-03-24T07:16:15.623Z,11.90
2023-03-24T07:18:47.965Z,11.90
2023-03-24T07:21:19.637Z,11.90
2023-03-24T07:23:52.783Z,11.90
2023-03-24T07:26:24.614Z,11.90
2023-03-24T07:28:56.680Z,11.90
2023-03-24T07:31:28.651Z,11.90
2023-03-24T07:34:01.979Z,11.90
2023-03-24T07:36:33.807Z,11.90
2023-03-24T07:39:06.982Z,12.00
2023-03-24T07:41:38.706Z,12.00
2023-03-24T07:44:10.751Z,12.00
2023-03-24T07:46:42.900Z,12.10
2023-03-24T07:49:19.321Z,12.10
2023-03-24T07:51:51.577Z,12.10
2023-03-24T07:54:24.759Z,12.20
2023-03-24T07:56:56.697Z,12.20
2023-03-24T07:59:28.707Z,12.30
2023-03-24T08:02:00.433Z,12.30
2023-03-24T08:04:33.307Z,12.40
2023-03-24T08:07:05.168Z,12.50
2023-03-24T08:09:39.205Z,12.50
2023-03-24T08:12:19.914Z,12.50
2023-03-24T08:14:52.644Z,12.60
2023-03-24T08:17:24.499Z,12.60
2023-03-24T08:20:00.675Z,12.60
2023-03-24T08:22:33.573Z,12.70
2023-03-24T08:25:08.671Z,12.80
2023-03-24T08:27:44.792Z,12.70
2023-03-24T08:30:21.662Z,12.70
2023-03-24T08:32:56.439Z,12.70
2023-03-24T08:35:32.446Z,12.80
2023-03-24T08:38:07.102Z,12.80
2023-03-24T08:40:42.696Z,12.80
2023-03-24T08:43:19.948Z,12.90
2023-03-24T08:45:51.830Z,13.00
2023-03-24T08:48:23.797Z,13.10
2023-03-24T08:50:55.613Z,13.30
2023-03-24T08:53:27.397Z,13.20
2023-03-24T08:56:00.395Z,13.10
2023-03-24T08:58:32.366Z,13.00
2023-03-24T09:01:04.624Z,12.90
2023-03-24T09:03:39.485Z,12.90
2023-03-24T09:06:12.291Z,12.90
2023-03-24T09:08:44.237Z,12.90
2023-03-24T09:11:23.257Z,13.00
2023-03-24T09:13:56.801Z,13.10
2023-03-24T09:16:28.663Z,13.10
2023-03-24T09:19:00.726Z,13.10
2023-03-24T09:21:32.337Z,13.20
2023-03-24T09:24:05.763Z,13.30
2023-03-24T09:26:38.690Z,13.30
2023-03-24T09:29:12.741Z,13.20
2023-03-24T09:31:44.318Z,13.20
2023-03-24T09:34:16.208Z,13.10
2023-03-24T09:36:48.023Z,13.00
2023-03-24T09:39:20.182Z,12.90
2023-03-24T09:41:53.489Z,12.90
2023-03-24T09:44:32.554Z,12.80
2023-03-24T09:47:20.671Z,12.80
2023-03-24T09:49:56.617Z,12.80
2023-03-24T09:52:36.157Z,12.80
2023-03-24T09:55:14.332Z,12.90
2023-03-24T09:57:51.778Z,12.90
2023-03-24T10:00:29.687Z,13.00
2023-03-24T10:03:14.881Z,13.10
2023-03-24T10:05:55.384Z,13.20
2023-03-24T10:08:36.308Z,13.30
2023-03-24T10:11:17.311Z,13.50
2023-03-24T10:14:13.897Z,13.60
2023-03-24T10:17:00.172Z,13.70
2023-03-24T10:19:46.742Z,13.90
2023-03-24T10:22:30.986Z,14.00
2023-03-24T10:25:15.688Z,14.00
2023-03-24T10:27:54.794Z,14.00
2023-03-24T10:30:33.066Z,14.10
2023-03-24T10:33:05.065Z,13.80
2023-03-24T10:35:43.536Z,13.90
2023-03-24T10:38:24.073Z,13.80
2023-03-24T10:40:57.066Z,13.80
2023-03-24T10:43:30.624Z,13.80
2023-03-24T10:46:04.987Z,13.90
2023-03-24T10:48:45.249Z,14.00
2023-03-24T10:51:19.904Z,13.90
2023-03-24T10:54:11.023Z,14.00
2023-03-24T10:56:47.007Z,14.00
2023-03-24T10:59:27.414Z,14.00
2023-03-24T11:02:18.438Z,14.10
2023-03-24T11:04:57.139Z,14.00
2023-03-24T11:07:34.776Z,14.10
2023-03-24T11:10:16.914Z,14.00
2023-03-24T11:13:02.510Z,14.00
2023-03-24T11:15:37.763Z,14.10
2023-03-24T11:18:20.116Z,14.30
2023-03-24T11:21:00.738Z,14.50
2023-03-24T11:23:35.882Z,14.70
2023-03-24T11:26:15.795Z,14.80
2023-03-24T11:28:53.261Z,15.00
2023-03-24T11:31:32.203Z,15.10
2023-03-24T11:34:09.433Z,15.20
2023-03-24T11:36:45.363Z,15.10
2023-03-24T11:39:22.154Z,15.00
2023-03-24T11:42:14.531Z,14.90
2023-03-24T11:44:49.263Z,14.70
2023-03-24T11:47:29.883Z,14.50
2023-03-24T11:50:18.707Z,14.50
2023-03-24T11:52:59.774Z,14.40
2023-03-24T11:55:41.701Z,14.40
2023-03-24T11:58:27.887Z,14.50
2023-03-24T12:01:08.273Z,14.40
2023-03-24T12:04:22.721Z,14.40
2023-03-24T12:07:14.591Z,14.60
2023-03-24T12:09:59.098Z,14.80
2023-03-24T12:12:46.663Z,14.70
2023-03-24T12:15:32.555Z,14.90
2023-03-24T12:18:19.960Z,15.10
2023-03-24T12:20:56.927Z,15.30
2023-03-24T12:23:45.615Z,15.40
2023-03-24T12:26:28.345Z,15.40
2023-03-24T12:29:26.608Z,15.30
2023-03-24T12:32:32.988Z,15.30
2023-03-24T12:35:47.753Z,15.10
2023-03-24T12:38:43.287Z,14.80
2023-03-24T12:41:41.194Z,14.70
2023-03-24T12:44:56.720Z,14.60
2023-03-24T12:47:45.778Z,14.60
2023-03-24T12:50:34.958Z,14.70
2023-03-24T12:53:26.564Z,14.70
2023-03-24T12:56:10.678Z,14.90
2023-03-24T12:58:50.794Z,14.90
2023-03-24T13:01:29.804Z,14.80
2023-03-24T13:04:13.093Z,14.70
2023-03-24T13:06:54.463Z,14.70
2023-03-24T13:09:41.670Z,14.80
2023-03-24T13:12:21.047Z,15.00
2023-03-24T13:15:03.256Z,15.10
2023-03-24T13:17:40.151Z,15.00
2023-03-24T13:20:24.401Z,15.00
2023-03-24T13:23:07.321Z,14.90
2023-03-24T13:25:51.231Z,14.70
2023-03-24T13:28:31.835Z,14.70
2023-03-24T13:31:06.185Z,14.70
2023-03-24T13:33:44.072Z,14.70
2023-03-24T13:36:39.285Z,14.60
2023-03-24T13:39:18.029Z,14.60
2023-03-24T13:41:56.943Z,14.60
2023-03-24T13:44:38.617Z,14.60
2023-03-24T13:47:15.671Z,14.80
2023-03-24T13:49:54.954Z,14.80
2023-03-24T13:52:35.129Z,14.80
2023-03-24T13:55:15.395Z,14.70
2023-03-24T13:58:01.616Z,14.70
2023-03-24T14:00:35.149Z,14.60
2023-03-24T14:03:32.531Z,14.50
2023-03-24T14:06:09.034Z,14.50
2023-03-24T14:09:01.619Z,14.40
2023-03-24T14:11:51.540Z,14.40
2023-03-24T14:14:25.496Z,14.40
2023-03-24T14:17:15.714Z,14.40
2023-03-24T14:20:25.595Z,14.40
2023-03-24T14:22:58.085Z,14.40
2023-03-24T14:25:33.959Z,14.30
2023-03-24T14:28:22.312Z,14.20
2023-03-24T14:31:04.410Z,14.20
2023-03-24T14:33:38.720Z,14.10
2023-03-24T14:36:20.632Z,14.10
2023-03-24T14:38:53.050Z,14.30
2023-03-24T14:41:39.109Z,14.30
2023-03-24T14:44:11.559Z,14.30
2023-03-24T14:46:53.446Z,14.30
2023-03-24T14:49:32.509Z,14.30
2023-03-24T14:52:14.445Z,14.20
2023-03-24T14:54:53.568Z,14.10
2023-03-24T14:57:29.561Z,14.10
2023-03-24T15:00:17.353Z,14.10
2023-03-24T15:02:51.623Z,14.10
2023-03-24T15:05:26.028Z,14.10
2023-03-24T15:08:12.938Z,14.10
2023-03-24T15:10:53.356Z,14.00
2023-03-24T15:13:35.985Z,14.00
2023-03-24T15:16:21.600Z,14.00
2023-03-24T15:21:35.957Z,13.90
2023-03-24T15:24:27.026Z,13.30
2023-03-24T15:27:20.329Z,12.90
2023-03-24T15:29:58.965Z,12.40
2023-03-24T15:32:38.761Z,12.40
2023-03-24T15:35:13.348Z,12.50
2023-03-24T15:37:51.119Z,12.80
2023-03-24T15:40:53.338Z,13.00
2023-03-24T15:43:26.441Z,13.10
2023-03-24T15:46:11.852Z,13.20
2023-03-24T15:48:47.725Z,13.40
2023-03-24T15:51:21.034Z,13.50
2023-03-24T15:54:02.021Z,13.70
2023-03-24T15:56:36.348Z,13.80
2023-03-24T15:59:17.787Z,14.00
2023-03-24T16:01:50.551Z,13.90
2023-03-24T16:04:24.072Z,14.00
2023-03-24T16:06:57.615Z,14.10
2023-03-24T16:09:40.776Z,13.70
2023-03-24T16:12:16.143Z,13.60
2023-03-24T16:14:48.008Z,13.50
2023-03-24T16:17:19.947Z,13.40
2023-03-24T16:19:51.951Z,13.30
2023-03-24T16:22:25.277Z,13.20
2023-03-24T16:24:58.350Z,13.20
2023-03-24T16:27:30.066Z,13.10
2023-03-24T16:30:02.063Z,13.00
2023-03-24T16:32:33.931Z,12.90
2023-03-24T16:35:05.890Z,12.90
2023-03-24T16:37:37.708Z,12.90
2023-03-24T16:40:28.858Z,12.90
2023-03-24T16:43:02.173Z,12.80
2023-03-24T16:45:35.568Z,12.80
2023-03-24T16:48:07.708Z,12.70
2023-03-24T16:50:43.170Z,12.30
2023-03-24T16:53:15.581Z,11.80
2023-03-24T16:55:48.790Z,11.70
2023-03-24T16:58:21.633Z,11.40
2023-03-24T17:00:56.266Z,11.10
2023-03-24T17:03:29.656Z,10.90
2023-03-24T17:06:03.512Z,10.90
2023-03-24T17:08:35.479Z,10.90
2023-03-24T17:11:10.931Z,10.80
2023-03-24T17:13:42.555Z,10.80
2023-03-24T17:16:16.741Z,10.80
2023-03-24T17:18:48.465Z,10.80
2023-03-24T17:21:21.727Z,11.00
2023-03-24T17:23:55.806Z,10.90
2023-03-24T17:26:31.580Z,10.90
2023-03-24T17:29:04.006Z,10.80
2023-03-24T17:31:35.951Z,10.90
2023-03-24T17:34:20.636Z,10.90
2023-03-24T17:36:53.058Z,10.90
2023-03-24T17:39:25.885Z,10.80
2023-03-24T17:42:01.314Z,10.80
2023-03-24T17:44:33.437Z,10.80
2023-03-24T17:47:05.549Z,10.80
2023-03-24T17:49:37.444Z,10.80
2023-03-24T17:52:09.234Z,10.80
2023-03-24T17:54:41.211Z,10.80
2023-03-24T17:57:14.580Z,10.80
2023-03-24T17:59:46.553Z,10.80
2023-03-24T18:02:18.629Z,10.70
2023-03-24T18:04:50.652Z,10.50
2023-03-24T18:07:22.990Z,10.60
2023-03-24T18:09:54.599Z,10.50
2023-03-24T18:12:28.794Z,10.50
2023-03-24T18:15:00.696Z,10.60
2023-03-24T18:17:32.621Z,10.60
2023-03-24T18:20:10.097Z,10.50
2023-03-24T18:22:42.064Z,10.30
2023-03-24T18:25:16.006Z,10.30
2023-03-24T18:27:49.710Z,10.10
2023-03-24T18:30:22.243Z,10.20
2023-03-24T18:32:54.090Z,10.20
2023-03-24T18:35:25.728Z,10.20
2023-03-24T18:37:57.606Z,10.20
2023-03-24T18:40:29.565Z,10.20
2023-03-24T18:43:02.815Z,10.20
2023-03-24T18:45:34.666Z,10.10
2023-03-24T18:48:07.242Z,10.10
2023-03-24T18:50:42.209Z,10.20
2023-03-24T18:53:14.483Z,10.20
2023-03-24T18:55:49.850Z,10.20
2023-03-24T18:58:23.654Z,10.10
2023-03-24T19:00:58.462Z,10.20
2023-03-24T19:03:31.012Z,10.20
2023-03-24T19:06:07.621Z,10.10
2023-03-24T19:08:41.785Z,10.00
2023-03-24T19:11:16.035Z,10.00
2023-03-24T19:13:50.665Z,9.90
2023-03-24T19:16:24.251Z,9.90
2023-03-24T19:18:57.945Z,9.90
2023-03-24T19:21:30.056Z,10.00
2023-03-24T19:24:01.894Z,9.90
2023-03-24T19:26:34.042Z,9.90
2023-03-24T19:29:07.141Z,9.90
2023-03-24T19:31:38.991Z,10.00
2023-03-24T19:34:10.937Z,10.00
2023-03-24T19:36:45.836Z,9.90
2023-03-24T19:39:18.876Z,9.90
2023-03-24T19:41:50.846Z,9.80
2023-03-24T19:44:24.706Z,9.90
2023-03-24T19:46:56.366Z,9.80
2023-03-24T19:49:28.406Z,9.80
2023-03-24T19:52:00.285Z,9.80
2023-03-24T19:54:32.142Z,9.70
2023-03-24T19:57:04.189Z,9.80
2023-03-24T19:59:37.529Z,9.80
2023-03-24T20:02:15.457Z,9.80
2023-03-24T20:04:47.761Z,9.80
2023-03-24T20:07:19.638Z,9.80
2023-03-24T20:09:51.665Z,9.70
2023-03-24T20:12:26.551Z,9.60
2023-03-24T20:14:59.911Z,9.70
2023-03-24T20:17:37.245Z,9.60
2023-03-24T20:20:10.504Z,9.60
2023-03-24T20:22:45.660Z,9.60
2023-03-24T20:25:19.959Z,9.50
2023-03-24T20:27:51.939Z,9.50
2023-03-24T20:30:28.083Z,9.50
2023-03-24T20:33:01.184Z,9.50
2023-03-24T20:38:05.032Z,9.60
2023-03-24T20:40:36.940Z,9.60
2023-03-24T20:43:08.901Z,9.60
2023-03-24T20:45:41.880Z,9.60
2023-03-24T20:48:13.711Z,9.70
2023-03-24T20:50:47.280Z,9.60
2023-03-24T20:53:20.897Z,9.70
2023-03-24T20:56:04.343Z,9.70
2023-03-24T20:58:38.416Z,9.70
2023-03-24T21:01:15.194Z,9.70
2023-03-24T21:03:47.148Z,9.70
2023-03-24T21:06:20.063Z,9.70
2023-03-24T21:08:54.374Z,9.70
2023-03-24T21:11:26.199Z,9.70
2023-03-24T21:13:58.193Z,9.70
2023-03-24T21:16:33.686Z,9.60
2023-03-24T21:19:10.326Z,9.60
2023-03-24T21:21:44.509Z,9.60
2023-03-24T21:24:16.585Z,9.60
2023-03-24T21:26:50.727Z,9.50
2023-03-24T21:29:23.146Z,9.50
2023-03-24T21:31:56.081Z,9.50
2023-03-24T21:34:27.985Z,9.40
2023-03-24T21:37:01.551Z,9.40
2023-03-24T21:39:33.577Z,9.40
2023-03-24T21:42:06.783Z,9.30
2023-03-24T21:44:39.631Z,9.30
2023-03-24T21:47:14.758Z,9.30
2023-03-24T21:49:48.980Z,9.30
2023-03-24T21:52:20.853Z,9.30
2023-03-24T21:54:53.718Z,9.30
2023-03-24T21:57:25.766Z,9.30
2023-03-24T21:59:58.176Z,9.30
2023-03-24T22:02:34.785Z,9.30
2023-03-24T22:05:07.014Z,9.30
2023-03-24T22:07:39.385Z,9.30
2023-03-24T22:10:16.180Z,9.30
2023-03-24T22:12:57.157Z,9.30
2023-03-24T22:15:32.436Z,9.30
2023-03-24T22:18:06.452Z,9.30
2023-03-24T22:20:38.097Z,9.20
2023-03-24T22:23:09.973Z,9.20
2023-03-24T22:25:41.826Z,9.30
2023-03-24T22:28:13.748Z,9.30
2023-03-24T22:30:45.525Z,9.30
2023-03-24T22:33:18.895Z,9.30
2023-03-24T22:35:54.817Z,9.20
2023-03-24T22:38:26.429Z,9.20
2023-03-24T22:41:00.470Z,9.20
2023-03-24T22:43:33.145Z,9.20
2023-03-24T22:46:04.882Z,9.20
2023-03-24T22:48:38.497Z,9.20
2023-03-24T22:51:16.784Z,9.20
2023-03-24T22:53:48.512Z,9.20
2023-03-24T22:56:20.377Z,9.30
2023-03-24T22:58:52.167Z,9.30
2023-03-24T23:01:24.271Z,9.40
2023-03-24T23:03:57.466Z,9.40
2023-03-24T23:06:29.756Z,9.40
2023-03-24T23:09:01.583Z,9.50
2023-03-24T23:11:33.758Z,9.40
2023-03-24T23:14:06.023Z,9.50
2023-03-24T23:16:40.371Z,9.40
2023-03-24T23:19:15.276Z,9.50
2023-03-24T23:21:47.229Z,9.40
2023-03-24T23:24:19.100Z,9.40
2023-03-24T23:26:50.629Z,9.40
2023-03-24T23:29:22.444Z,9.40
2023-03-24T23:31:54.347Z,9.40
2023-03-24T23:34:27.411Z,9.40
2023-03-24T23:37:03.154Z,9.50
2023-03-24T23:39:36.681Z,9.40
2023-03-24T23:42:08.347Z,9.40
2023-03-24T23:44:40.491Z,9.40
2023-03-24T23:47:18.202Z,9.50
2023-03-24T23:49:51.450Z,9.50
2023-03-24T23:52:23.270Z,9.50
2023-03-24T23:54:55.156Z,9.60
2023-03-24T23:57:27.217Z,9.60
